sensor_id;sensor_type;location;lat;lon;timestamp;P1;durP1;ratioP1;P2;durP2;ratioP2
24867;SDS011;12941;48.698;9.310;2023-09-18T00:00:29;4.1;;;2.6;;
24867;SDS011;12941;48.698;9.310;2023-09-18T00:01:34;4.1;;;2.6;;
24867;SDS011;12941;48.698;9.310;2023-09-18T00:02:39;5.1;;;2.9;;
24867;SDS011;12941;48.698;9.310;2023-09-18T00:03:39;5.1;;;2.9;;
24867;SDS011;12941;48.698;9.310;2023-09-18T00:04:44;5.1;;;2.9;;
24867;SDS011;12941;48.698;9.310;2023-09-18T00:05:44;5.1;;;2.9;;
24867;SDS011;12941;48.698;9.310;2023-09-18T00:06:44;5.1;;;2.9;;
24867;SDS011;12941;48.698;9.310;2023-09-18T00:07:44;5.3;;;3.1;;
24867;SDS011;12941;48.698;9.310;2023-09-18T00:08:44;5.3;;;3.1;;
24867;SDS011;12941;48.698;9.310;2023-09-18T00:09:44;5.3;;;3.1;;
24867;SDS011;12941;48.698;9.310;2023-09-18T00:10:50;5.3;;;3.1;;
24867;SDS011;12941;48.698;9.310;2023-09-18T00:11:54;5.3;;;3.1;;
24867;SDS011;12941;48.698;9.310;2023-09-18T00:12:59;6.5;;;3.1;;
24867;SDS011;12941;48.698;9.310;2023-09-18T00:13:59;6.5;;;3.1;;
24867;SDS011;12941;48.698;9.310;2023-09-18T00:15:05;6.5;;;3.1;;
24867;SDS011;12941;48.698;9.310;2023-09-18T00:16:09;6.5;;;3.1;;
24867;SDS011;12941;48.698;9.310;2023-09-18T00:17:14;6.5;;;3.1;;
24867;SDS011;12941;48.698;9.310;2023-09-18T00:18:19;4.9;;;3.1;;
24867;SDS011;12941;48.698;9.310;2023-09-18T00:19:24;4.9;;;3.1;;
24867;SDS011;12941;48.698;9.310;2023-09-18T00:20:29;4.9;;;3.1;;
24867;SDS011;12941;48.698;9.310;2023-09-18T00:21:29;4.9;;;3.1;;
24867;SDS011;12941;48.698;9.310;2023-09-18T00:22:34;3.9;;;3.1;;
24867;SDS011;12941;48.698;9.310;2023-09-18T00:23:39;3.9;;;3.1;;
24867;SDS011;12941;48.698;9.310;2023-09-18T00:24:39;3.9;;;3.1;;
24867;SDS011;12941;48.698;9.310;2023-09-18T00:25:44;3.9;;;3.1;;
24867;SDS011;12941;48.698;9.310;2023-09-18T00:26:49;3.9;;;3.1;;
24867;SDS011;12941;48.698;9.310;2023-09-18T00:27:54;5.7;;;2.9;;
24867;SDS011;12941;48.698;9.310;2023-09-18T00:29:00;5.7;;;2.9;;
24867;SDS011;12941;48.698;9.310;2023-09-18T00:30:00;5.7;;;2.9;;
24867;SDS011;12941;48.698;9.310;2023-09-18T00:31:04;5.7;;;2.9;;
24867;SDS011;12941;48.698;9.310;2023-09-18T00:32:09;5.7;;;2.9;;
24867;SDS011;12941;48.698;9.310;2023-09-18T00:33:14;4.7;;;3.3;;
24867;SDS011;12941;48.698;9.310;2023-09-18T00:34:14;4.7;;;3.3;;
24867;SDS011;12941;48.698;9.310;2023-09-18T00:35:14;4.7;;;3.3;;
24867;SDS011;12941;48.698;9.310;2023-09-18T00:36:19;4.7;;;3.3;;
24867;SDS011;12941;48.698;9.310;2023-09-18T00:37:22;4.6;;;2.8;;
24867;SDS011;12941;48.698;9.310;2023-09-18T00:38:25;4.6;;;2.8;;
24867;SDS011;12941;48.698;9.310;2023-09-18T00:39:29;4.6;;;2.8;;
24867;SDS011;12941;48.698;9.310;2023-09-18T00:40:29;4.6;;;2.8;;
24867;SDS011;12941;48.698;9.310;2023-09-18T00:41:35;4.6;;;2.8;;
24867;SDS011;12941;48.698;9.310;2023-09-18T00:42:40;5.7;;;3.3;;
24867;SDS011;12941;48.698;9.310;2023-09-18T00:43:40;5.7;;;3.3;;
24867;SDS011;12941;48.698;9.310;2023-09-18T00:44:44;5.7;;;3.3;;
24867;SDS011;12941;48.698;9.310;2023-09-18T00:45:49;5.7;;;3.3;;
24867;SDS011;12941;48.698;9.310;2023-09-18T00:46:50;5.7;;;3.3;;
24867;SDS011;12941;48.698;9.310;2023-09-18T00:47:54;4.4;;;2.9;;
24867;SDS011;12941;48.698;9.310;2023-09-18T00:48:57;4.4;;;2.9;;
24867;SDS011;12941;48.698;9.310;2023-09-18T00:49:59;4.4;;;2.9;;
24867;SDS011;12941;48.698;9.310;2023-09-18T00:50:59;4.4;;;2.9;;
24867;SDS011;12941;48.698;9.310;2023-09-18T00:52:05;4.4;;;2.9;;
24867;SDS011;12941;48.698;9.310;2023-09-18T00:53:04;3.4;;;2.7;;
24867;SDS011;12941;48.698;9.310;2023-09-18T00:54:09;3.4;;;2.7;;
24867;SDS011;12941;48.698;9.310;2023-09-18T00:55:14;3.4;;;2.7;;
24867;SDS011;12941;48.698;9.310;2023-09-18T00:56:14;3.4;;;2.7;;
24867;SDS011;12941;48.698;9.310;2023-09-18T00:57:19;3.5;;;3.1;;
24867;SDS011;12941;48.698;9.310;2023-09-18T00:58:25;3.5;;;3.1;;
24867;SDS011;12941;48.698;9.310;2023-09-18T00:59:30;3.5;;;3.1;;
24867;SDS011;12941;48.698;9.310;2023-09-18T01:00:35;3.5;;;3.1;;
24867;SDS011;12941;48.698;9.310;2023-09-18T01:01:40;3.5;;;3.1;;
24867;SDS011;12941;48.698;9.310;2023-09-18T01:02:40;4.5;;;2.8;;
24867;SDS011;12941;48.698;9.310;2023-09-18T01:03:45;4.5;;;2.8;;
24867;SDS011;12941;48.698;9.310;2023-09-18T01:04:49;4.5;;;2.8;;
24867;SDS011;12941;48.698;9.310;2023-09-18T01:05:50;4.5;;;2.8;;
24867;SDS011;12941;48.698;9.310;2023-09-18T01:06:54;4.5;;;2.8;;
24867;SDS011;12941;48.698;9.310;2023-09-18T01:08:00;5.2;;;3;;
24867;SDS011;12941;48.698;9.310;2023-09-18T01:09:00;5.2;;;3;;
24867;SDS011;12941;48.698;9.310;2023-09-18T01:10:00;5.2;;;3;;
24867;SDS011;12941;48.698;9.310;2023-09-18T01:11:01;5.2;;;3;;
24867;SDS011;12941;48.698;9.310;2023-09-18T01:12:01;5.2;;;3;;
24867;SDS011;12941;48.698;9.310;2023-09-18T01:13:08;3.6;;;2.6;;
24867;SDS011;12941;48.698;9.310;2023-09-18T01:14:08;3.6;;;2.6;;
24867;SDS011;12941;48.698;9.310;2023-09-18T01:15:06;3.6;;;2.6;;
24867;SDS011;12941;48.698;9.310;2023-09-18T01:16:10;3.6;;;2.6;;
24867;SDS011;12941;48.698;9.310;2023-09-18T01:17:10;3.6;;;2.6;;
24867;SDS011;12941;48.698;9.310;2023-09-18T01:18:10;4.7;;;3.1;;
24867;SDS011;12941;48.698;9.310;2023-09-18T01:19:15;4.7;;;3.1;;
24867;SDS011;12941;48.698;9.310;2023-09-18T01:20:15;4.7;;;3.1;;
24867;SDS011;12941;48.698;9.310;2023-09-18T01:21:20;4.7;;;3.1;;
24867;SDS011;12941;48.698;9.310;2023-09-18T01:22:20;3.7;;;2.9;;
24867;SDS011;12941;48.698;9.310;2023-09-18T01:23:20;3.6;;;2.9;;
24867;SDS011;12941;48.698;9.310;2023-09-18T01:24:20;3.6;;;2.9;;
24867;SDS011;12941;48.698;9.310;2023-09-18T01:25:25;3.6;;;2.9;;
24867;SDS011;12941;48.698;9.310;2023-09-18T01:26:25;3.6;;;2.9;;
24867;SDS011;12941;48.698;9.310;2023-09-18T01:27:30;5.2;;;2.9;;
24867;SDS011;12941;48.698;9.310;2023-09-18T01:28:30;5.2;;;2.9;;
24867;SDS011;12941;48.698;9.310;2023-09-18T01:29:30;5.2;;;2.9;;
24867;SDS011;12941;48.698;9.310;2023-09-18T01:30:35;5.2;;;2.9;;
24867;SDS011;12941;48.698;9.310;2023-09-18T01:31:35;5.2;;;2.9;;
24867;SDS011;12941;48.698;9.310;2023-09-18T01:32:40;3.6;;;3.1;;
24867;SDS011;12941;48.698;9.310;2023-09-18T01:33:45;3.6;;;3.1;;
24867;SDS011;12941;48.698;9.310;2023-09-18T01:34:46;3.6;;;3.1;;
24867;SDS011;12941;48.698;9.310;2023-09-18T01:35:45;3.6;;;3.1;;
24867;SDS011;12941;48.698;9.310;2023-09-18T01:36:45;3.6;;;3.1;;
24867;SDS011;12941;48.698;9.310;2023-09-18T01:37:50;5.6;;;3.1;;
24867;SDS011;12941;48.698;9.310;2023-09-18T01:38:50;5.6;;;3.1;;
24867;SDS011;12941;48.698;9.310;2023-09-18T01:39:55;5.6;;;3.1;;
24867;SDS011;12941;48.698;9.310;2023-09-18T01:41:00;5.6;;;3.1;;
24867;SDS011;12941;48.698;9.310;2023-09-18T01:42:05;5.6;;;3.1;;
24867;SDS011;12941;48.698;9.310;2023-09-18T01:43:10;4.7;;;3.1;;
24867;SDS011;12941;48.698;9.310;2023-09-18T01:44:15;4.7;;;3.1;;
24867;SDS011;12941;48.698;9.310;2023-09-18T01:45:20;4.7;;;3.1;;
24867;SDS011;12941;48.698;9.310;2023-09-18T01:46:20;4.7;;;3.1;;
24867;SDS011;12941;48.698;9.310;2023-09-18T01:47:21;3.1;;;2.6;;
24867;SDS011;12941;48.698;9.310;2023-09-18T01:48:25;3;;;2.6;;
24867;SDS011;12941;48.698;9.310;2023-09-18T01:49:31;3;;;2.6;;
24867;SDS011;12941;48.698;9.310;2023-09-18T01:50:36;3;;;2.6;;
24867;SDS011;12941;48.698;9.310;2023-09-18T01:51:35;3;;;2.6;;
24867;SDS011;12941;48.698;9.310;2023-09-18T01:52:40;3.2;;;2.6;;
24867;SDS011;12941;48.698;9.310;2023-09-18T01:53:45;3.2;;;2.6;;
24867;SDS011;12941;48.698;9.310;2023-09-18T01:54:50;3.2;;;2.6;;
24867;SDS011;12941;48.698;9.310;2023-09-18T01:55:50;3.2;;;2.6;;
24867;SDS011;12941;48.698;9.310;2023-09-18T01:56:55;3.2;;;2.6;;
24867;SDS011;12941;48.698;9.310;2023-09-18T01:58:00;4.9;;;2.6;;
24867;SDS011;12941;48.698;9.310;2023-09-18T01:59:00;4.9;;;2.6;;
24867;SDS011;12941;48.698;9.310;2023-09-18T02:00:00;4.9;;;2.6;;
24867;SDS011;12941;48.698;9.310;2023-09-18T02:01:05;4.9;;;2.6;;
24867;SDS011;12941;48.698;9.310;2023-09-18T02:02:05;4.9;;;2.6;;
24867;SDS011;12941;48.698;9.310;2023-09-18T02:03:10;3.3;;;2.5;;
24867;SDS011;12941;48.698;9.310;2023-09-18T02:04:15;3.3;;;2.5;;
24867;SDS011;12941;48.698;9.310;2023-09-18T02:05:20;3.3;;;2.5;;
24867;SDS011;12941;48.698;9.310;2023-09-18T02:06:20;3.3;;;2.5;;
24867;SDS011;12941;48.698;9.310;2023-09-18T02:07:20;5.1;;;2.5;;
24867;SDS011;12941;48.698;9.310;2023-09-18T02:08:25;5;;;2.5;;
24867;SDS011;12941;48.698;9.310;2023-09-18T02:09:30;5;;;2.5;;
24867;SDS011;12941;48.698;9.310;2023-09-18T02:10:35;5;;;2.5;;
24867;SDS011;12941;48.698;9.310;2023-09-18T02:11:41;5;;;2.5;;
24867;SDS011;12941;48.698;9.310;2023-09-18T02:12:45;3.5;;;2.7;;
24867;SDS011;12941;48.698;9.310;2023-09-18T02:13:50;3.5;;;2.7;;
24867;SDS011;12941;48.698;9.310;2023-09-18T02:14:50;3.5;;;2.7;;
24867;SDS011;12941;48.698;9.310;2023-09-18T02:15:55;3.5;;;2.7;;
24867;SDS011;12941;48.698;9.310;2023-09-18T02:16:57;3.5;;;2.7;;
24867;SDS011;12941;48.698;9.310;2023-09-18T02:18:00;4.9;;;2.7;;
24867;SDS011;12941;48.698;9.310;2023-09-18T02:19:00;4.9;;;2.7;;
24867;SDS011;12941;48.698;9.310;2023-09-18T02:20:06;4.9;;;2.7;;
24867;SDS011;12941;48.698;9.310;2023-09-18T02:21:10;4.9;;;2.7;;
24867;SDS011;12941;48.698;9.310;2023-09-18T02:22:10;4.9;;;2.7;;
24867;SDS011;12941;48.698;9.310;2023-09-18T02:23:10;3.9;;;2.6;;
24867;SDS011;12941;48.698;9.310;2023-09-18T02:24:10;3.9;;;2.6;;
24867;SDS011;12941;48.698;9.310;2023-09-18T02:25:10;3.9;;;2.6;;
24867;SDS011;12941;48.698;9.310;2023-09-18T02:26:15;3.9;;;2.6;;
24867;SDS011;12941;48.698;9.310;2023-09-18T02:27:20;6.1;;;2.8;;
24867;SDS011;12941;48.698;9.310;2023-09-18T02:28:25;6.1;;;2.7;;
24867;SDS011;12941;48.698;9.310;2023-09-18T02:29:25;6.1;;;2.7;;
24867;SDS011;12941;48.698;9.310;2023-09-18T02:30:30;6.1;;;2.7;;
24867;SDS011;12941;48.698;9.310;2023-09-18T02:31:35;6.1;;;2.7;;
24867;SDS011;12941;48.698;9.310;2023-09-18T02:32:35;4.3;;;2.8;;
24867;SDS011;12941;48.698;9.310;2023-09-18T02:33:36;4.3;;;2.8;;
24867;SDS011;12941;48.698;9.310;2023-09-18T02:34:40;4.3;;;2.8;;
24867;SDS011;12941;48.698;9.310;2023-09-18T02:35:40;4.3;;;2.8;;
24867;SDS011;12941;48.698;9.310;2023-09-18T02:36:45;4.3;;;2.8;;
24867;SDS011;12941;48.698;9.310;2023-09-18T02:37:50;3.8;;;2.4;;
24867;SDS011;12941;48.698;9.310;2023-09-18T02:38:50;3.8;;;2.4;;
24867;SDS011;12941;48.698;9.310;2023-09-18T02:39:55;3.8;;;2.4;;
24867;SDS011;12941;48.698;9.310;2023-09-18T02:41:00;3.8;;;2.4;;
24867;SDS011;12941;48.698;9.310;2023-09-18T02:42:00;3.8;;;2.4;;
24867;SDS011;12941;48.698;9.310;2023-09-18T02:43:05;5.2;;;2.8;;
24867;SDS011;12941;48.698;9.310;2023-09-18T02:44:05;5.2;;;2.8;;
24867;SDS011;12941;48.698;9.310;2023-09-18T02:45:10;5.2;;;2.8;;
24867;SDS011;12941;48.698;9.310;2023-09-18T02:46:15;5.2;;;2.8;;
24867;SDS011;12941;48.698;9.310;2023-09-18T02:47:15;5.2;;;2.8;;
24867;SDS011;12941;48.698;9.310;2023-09-18T02:48:21;3.8;;;2.8;;
24867;SDS011;12941;48.698;9.310;2023-09-18T02:49:25;3.8;;;2.8;;
24867;SDS011;12941;48.698;9.310;2023-09-18T02:50:30;3.8;;;2.8;;
24867;SDS011;12941;48.698;9.310;2023-09-18T02:51:35;3.8;;;2.8;;
24867;SDS011;12941;48.698;9.310;2023-09-18T02:52:40;4.1;;;2.9;;
24867;SDS011;12941;48.698;9.310;2023-09-18T02:53:45;4.1;;;2.9;;
24867;SDS011;12941;48.698;9.310;2023-09-18T02:54:45;4.1;;;2.9;;
24867;SDS011;12941;48.698;9.310;2023-09-18T02:55:51;4.1;;;2.9;;
24867;SDS011;12941;48.698;9.310;2023-09-18T02:56:50;4.1;;;2.9;;
24867;SDS011;12941;48.698;9.310;2023-09-18T02:57:55;4;;;2.8;;
24867;SDS011;12941;48.698;9.310;2023-09-18T02:58:56;4;;;2.8;;
24867;SDS011;12941;48.698;9.310;2023-09-18T03:00:01;4;;;2.8;;
24867;SDS011;12941;48.698;9.310;2023-09-18T03:01:01;4;;;2.8;;
24867;SDS011;12941;48.698;9.310;2023-09-18T03:02:05;4;;;2.8;;
24867;SDS011;12941;48.698;9.310;2023-09-18T03:03:05;3.7;;;2.8;;
24867;SDS011;12941;48.698;9.310;2023-09-18T03:04:05;3.7;;;2.8;;
24867;SDS011;12941;48.698;9.310;2023-09-18T03:05:06;3.7;;;2.8;;
24867;SDS011;12941;48.698;9.310;2023-09-18T03:06:05;3.7;;;2.8;;
24867;SDS011;12941;48.698;9.310;2023-09-18T03:07:06;3.7;;;2.8;;
24867;SDS011;12941;48.698;9.310;2023-09-18T03:08:06;4;;;2.9;;
24867;SDS011;12941;48.698;9.310;2023-09-18T03:09:06;4;;;2.9;;
24867;SDS011;12941;48.698;9.310;2023-09-18T03:10:06;4;;;2.9;;
24867;SDS011;12941;48.698;9.310;2023-09-18T03:11:10;4;;;2.9;;
24867;SDS011;12941;48.698;9.310;2023-09-18T03:12:11;4;;;2.9;;
24867;SDS011;12941;48.698;9.310;2023-09-18T03:13:16;4.2;;;2.7;;
24867;SDS011;12941;48.698;9.310;2023-09-18T03:14:16;4.2;;;2.7;;
24867;SDS011;12941;48.698;9.310;2023-09-18T03:15:21;4.2;;;2.7;;
24867;SDS011;12941;48.698;9.310;2023-09-18T03:16:21;4.2;;;2.7;;
24867;SDS011;12941;48.698;9.310;2023-09-18T03:17:22;6.7;;;2.8;;
24867;SDS011;12941;48.698;9.310;2023-09-18T03:18:26;6.7;;;2.8;;
24867;SDS011;12941;48.698;9.310;2023-09-18T03:19:31;6.7;;;2.8;;
24867;SDS011;12941;48.698;9.310;2023-09-18T03:20:31;6.7;;;2.8;;
24867;SDS011;12941;48.698;9.310;2023-09-18T03:21:31;6.7;;;2.8;;
24867;SDS011;12941;48.698;9.310;2023-09-18T03:22:36;7.7;;;3.4;;
24867;SDS011;12941;48.698;9.310;2023-09-18T03:23:36;7.7;;;3.4;;
24867;SDS011;12941;48.698;9.310;2023-09-18T03:24:41;7.7;;;3.4;;
24867;SDS011;12941;48.698;9.310;2023-09-18T03:25:46;7.7;;;3.4;;
24867;SDS011;12941;48.698;9.310;2023-09-18T03:26:46;7.7;;;3.4;;
24867;SDS011;12941;48.698;9.310;2023-09-18T03:27:46;5;;;3;;
24867;SDS011;12941;48.698;9.310;2023-09-18T03:28:46;5;;;3;;
24867;SDS011;12941;48.698;9.310;2023-09-18T03:29:51;5;;;3;;
24867;SDS011;12941;48.698;9.310;2023-09-18T03:30:51;5;;;3;;
24867;SDS011;12941;48.698;9.310;2023-09-18T03:31:51;5;;;3;;
24867;SDS011;12941;48.698;9.310;2023-09-18T03:32:56;6.2;;;3.2;;
24867;SDS011;12941;48.698;9.310;2023-09-18T03:34:01;6.2;;;3.2;;
24867;SDS011;12941;48.698;9.310;2023-09-18T03:35:01;6.2;;;3.2;;
24867;SDS011;12941;48.698;9.310;2023-09-18T03:36:06;6.2;;;3.2;;
24867;SDS011;12941;48.698;9.310;2023-09-18T03:37:06;6.2;;;3.2;;
24867;SDS011;12941;48.698;9.310;2023-09-18T03:38:06;4.5;;;2.8;;
24867;SDS011;12941;48.698;9.310;2023-09-18T03:39:06;4.5;;;2.8;;
24867;SDS011;12941;48.698;9.310;2023-09-18T03:40:06;4.5;;;2.8;;
24867;SDS011;12941;48.698;9.310;2023-09-18T03:41:06;4.5;;;2.8;;
24867;SDS011;12941;48.698;9.310;2023-09-18T03:42:11;4.5;;;2.8;;
24867;SDS011;12941;48.698;9.310;2023-09-18T03:43:16;4.7;;;2.9;;
24867;SDS011;12941;48.698;9.310;2023-09-18T03:44:16;4.7;;;2.9;;
24867;SDS011;12941;48.698;9.310;2023-09-18T03:45:21;4.7;;;2.9;;
24867;SDS011;12941;48.698;9.310;2023-09-18T03:46:26;4.7;;;2.9;;
24867;SDS011;12941;48.698;9.310;2023-09-18T03:47:26;4.7;;;2.9;;
24867;SDS011;12941;48.698;9.310;2023-09-18T03:48:31;4.7;;;2.9;;
24867;SDS011;12941;48.698;9.310;2023-09-18T03:49:31;4.7;;;2.9;;
24867;SDS011;12941;48.698;9.310;2023-09-18T03:50:31;4.7;;;2.9;;
24867;SDS011;12941;48.698;9.310;2023-09-18T03:51:31;4.7;;;2.9;;
24867;SDS011;12941;48.698;9.310;2023-09-18T03:52:38;5;;;2.9;;
24867;SDS011;12941;48.698;9.310;2023-09-18T03:53:41;5;;;2.9;;
24867;SDS011;12941;48.698;9.310;2023-09-18T03:54:46;5;;;2.9;;
24867;SDS011;12941;48.698;9.310;2023-09-18T03:55:47;5;;;2.9;;
24867;SDS011;12941;48.698;9.310;2023-09-18T03:56:46;5;;;2.9;;
24867;SDS011;12941;48.698;9.310;2023-09-18T03:57:51;3.9;;;2.8;;
24867;SDS011;12941;48.698;9.310;2023-09-18T03:58:51;3.9;;;2.8;;
24867;SDS011;12941;48.698;9.310;2023-09-18T03:59:56;3.9;;;2.8;;
24867;SDS011;12941;48.698;9.310;2023-09-18T04:01:01;3.9;;;2.8;;
24867;SDS011;12941;48.698;9.310;2023-09-18T04:02:01;3.9;;;2.8;;
24867;SDS011;12941;48.698;9.310;2023-09-18T04:03:06;5.8;;;2.7;;
24867;SDS011;12941;48.698;9.310;2023-09-18T04:04:11;5.8;;;2.7;;
24867;SDS011;12941;48.698;9.310;2023-09-18T04:05:11;5.8;;;2.7;;
24867;SDS011;12941;48.698;9.310;2023-09-18T04:06:11;5.8;;;2.7;;
24867;SDS011;12941;48.698;9.310;2023-09-18T04:07:11;5.8;;;2.7;;
24867;SDS011;12941;48.698;9.310;2023-09-18T04:08:16;6.1;;;2.4;;
24867;SDS011;12941;48.698;9.310;2023-09-18T04:09:16;6.1;;;2.4;;
24867;SDS011;12941;48.698;9.310;2023-09-18T04:10:21;6.1;;;2.4;;
24867;SDS011;12941;48.698;9.310;2023-09-18T04:11:21;6.1;;;2.4;;
24867;SDS011;12941;48.698;9.310;2023-09-18T04:12:21;3.8;;;2.2;;
24867;SDS011;12941;48.698;9.310;2023-09-18T04:13:27;3.8;;;2.2;;
24867;SDS011;12941;48.698;9.310;2023-09-18T04:14:26;3.8;;;2.2;;
24867;SDS011;12941;48.698;9.310;2023-09-18T04:15:27;3.8;;;2.2;;
24867;SDS011;12941;48.698;9.310;2023-09-18T04:16:27;3.8;;;2.2;;
24867;SDS011;12941;48.698;9.310;2023-09-18T04:17:31;3.3;;;2.5;;
24867;SDS011;12941;48.698;9.310;2023-09-18T04:18:31;3.3;;;2.5;;
24867;SDS011;12941;48.698;9.310;2023-09-18T04:19:36;3.3;;;2.5;;
24867;SDS011;12941;48.698;9.310;2023-09-18T04:20:41;3.3;;;2.5;;
24867;SDS011;12941;48.698;9.310;2023-09-18T04:21:41;3.3;;;2.5;;
24867;SDS011;12941;48.698;9.310;2023-09-18T04:22:47;5.2;;;2.7;;
24867;SDS011;12941;48.698;9.310;2023-09-18T04:23:51;5.2;;;2.7;;
24867;SDS011;12941;48.698;9.310;2023-09-18T04:24:56;5.2;;;2.7;;
24867;SDS011;12941;48.698;9.310;2023-09-18T04:26:01;5.2;;;2.7;;
24867;SDS011;12941;48.698;9.310;2023-09-18T04:27:01;5.2;;;2.7;;
24867;SDS011;12941;48.698;9.310;2023-09-18T04:28:06;4.6;;;2.6;;
24867;SDS011;12941;48.698;9.310;2023-09-18T04:29:11;4.6;;;2.6;;
24867;SDS011;12941;48.698;9.310;2023-09-18T04:30:16;4.6;;;2.6;;
24867;SDS011;12941;48.698;9.310;2023-09-18T04:31:16;4.6;;;2.6;;
24867;SDS011;12941;48.698;9.310;2023-09-18T04:32:16;4.6;;;2.6;;
24867;SDS011;12941;48.698;9.310;2023-09-18T04:33:17;5.3;;;2.8;;
24867;SDS011;12941;48.698;9.310;2023-09-18T04:34:21;5.3;;;2.8;;
24867;SDS011;12941;48.698;9.310;2023-09-18T04:35:26;5.3;;;2.8;;
24867;SDS011;12941;48.698;9.310;2023-09-18T04:36:31;5.3;;;2.8;;
24867;SDS011;12941;48.698;9.310;2023-09-18T04:37:37;5.1;;;2.5;;
24867;SDS011;12941;48.698;9.310;2023-09-18T04:38:41;5.1;;;2.5;;
24867;SDS011;12941;48.698;9.310;2023-09-18T04:39:41;5.1;;;2.5;;
24867;SDS011;12941;48.698;9.310;2023-09-18T04:40:41;5.1;;;2.5;;
24867;SDS011;12941;48.698;9.310;2023-09-18T04:41:46;5.1;;;2.5;;
24867;SDS011;12941;48.698;9.310;2023-09-18T04:42:47;5.7;;;2.6;;
24867;SDS011;12941;48.698;9.310;2023-09-18T04:43:47;5.7;;;2.6;;
24867;SDS011;12941;48.698;9.310;2023-09-18T04:44:51;5.7;;;2.6;;
24867;SDS011;12941;48.698;9.310;2023-09-18T04:45:56;5.7;;;2.6;;
24867;SDS011;12941;48.698;9.310;2023-09-18T04:46:57;5.7;;;2.6;;
24867;SDS011;12941;48.698;9.310;2023-09-18T04:48:02;6.9;;;2.8;;
24867;SDS011;12941;48.698;9.310;2023-09-18T04:49:02;6.9;;;2.8;;
24867;SDS011;12941;48.698;9.310;2023-09-18T04:50:07;6.9;;;2.8;;
24867;SDS011;12941;48.698;9.310;2023-09-18T04:51:06;6.9;;;2.8;;
24867;SDS011;12941;48.698;9.310;2023-09-18T04:52:11;6.9;;;2.8;;
24867;SDS011;12941;48.698;9.310;2023-09-18T04:53:12;8.3;;;3.1;;
24867;SDS011;12941;48.698;9.310;2023-09-18T04:54:16;8.3;;;3.1;;
24867;SDS011;12941;48.698;9.310;2023-09-18T04:55:22;8.3;;;3.1;;
24867;SDS011;12941;48.698;9.310;2023-09-18T04:56:22;8.3;;;3.1;;
24867;SDS011;12941;48.698;9.310;2023-09-18T04:57:22;6.6;;;2.6;;
24867;SDS011;12941;48.698;9.310;2023-09-18T04:58:26;6.6;;;2.6;;
24867;SDS011;12941;48.698;9.310;2023-09-18T04:59:27;6.6;;;2.6;;
24867;SDS011;12941;48.698;9.310;2023-09-18T05:00:27;6.6;;;2.6;;
24867;SDS011;12941;48.698;9.310;2023-09-18T05:01:32;6.6;;;2.6;;
24867;SDS011;12941;48.698;9.310;2023-09-18T05:02:32;5.4;;;2.6;;
24867;SDS011;12941;48.698;9.310;2023-09-18T05:03:37;5.4;;;2.6;;
24867;SDS011;12941;48.698;9.310;2023-09-18T05:04:42;5.4;;;2.6;;
24867;SDS011;12941;48.698;9.310;2023-09-18T05:05:47;5.4;;;2.6;;
24867;SDS011;12941;48.698;9.310;2023-09-18T05:06:47;5.4;;;2.6;;
24867;SDS011;12941;48.698;9.310;2023-09-18T05:07:52;4.7;;;2.8;;
24867;SDS011;12941;48.698;9.310;2023-09-18T05:08:57;4.7;;;2.8;;
24867;SDS011;12941;48.698;9.310;2023-09-18T05:10:02;4.7;;;2.8;;
24867;SDS011;12941;48.698;9.310;2023-09-18T05:11:02;4.7;;;2.8;;
24867;SDS011;12941;48.698;9.310;2023-09-18T05:12:08;4.7;;;2.8;;
24867;SDS011;12941;48.698;9.310;2023-09-18T05:13:07;5.9;;;2.4;;
24867;SDS011;12941;48.698;9.310;2023-09-18T05:14:12;5.9;;;2.4;;
24867;SDS011;12941;48.698;9.310;2023-09-18T05:15:12;5.9;;;2.4;;
24867;SDS011;12941;48.698;9.310;2023-09-18T05:16:12;5.9;;;2.4;;
24867;SDS011;12941;48.698;9.310;2023-09-18T05:17:17;5.9;;;2.4;;
24867;SDS011;12941;48.698;9.310;2023-09-18T05:18:17;5.2;;;2.6;;
24867;SDS011;12941;48.698;9.310;2023-09-18T05:19:22;5.2;;;2.6;;
24867;SDS011;12941;48.698;9.310;2023-09-18T05:20:22;5.2;;;2.6;;
24867;SDS011;12941;48.698;9.310;2023-09-18T05:21:27;5.2;;;2.6;;
24867;SDS011;12941;48.698;9.310;2023-09-18T05:22:27;8.2;;;2.8;;
24867;SDS011;12941;48.698;9.310;2023-09-18T05:23:32;8.2;;;2.8;;
24867;SDS011;12941;48.698;9.310;2023-09-18T05:24:37;8.2;;;2.8;;
24867;SDS011;12941;48.698;9.310;2023-09-18T05:25:37;8.2;;;2.8;;
24867;SDS011;12941;48.698;9.310;2023-09-18T05:26:42;8.2;;;2.8;;
24867;SDS011;12941;48.698;9.310;2023-09-18T05:27:42;4.8;;;2.7;;
24867;SDS011;12941;48.698;9.310;2023-09-18T05:28:42;4.8;;;2.7;;
24867;SDS011;12941;48.698;9.310;2023-09-18T05:29:42;4.8;;;2.7;;
24867;SDS011;12941;48.698;9.310;2023-09-18T05:30:47;4.8;;;2.7;;
24867;SDS011;12941;48.698;9.310;2023-09-18T05:31:52;4.8;;;2.7;;
24867;SDS011;12941;48.698;9.310;2023-09-18T05:32:52;7.9;;;2.7;;
24867;SDS011;12941;48.698;9.310;2023-09-18T05:33:57;7.9;;;2.7;;
24867;SDS011;12941;48.698;9.310;2023-09-18T05:34:57;7.9;;;2.7;;
24867;SDS011;12941;48.698;9.310;2023-09-18T05:36:02;7.9;;;2.7;;
24867;SDS011;12941;48.698;9.310;2023-09-18T05:37:02;7.9;;;2.7;;
24867;SDS011;12941;48.698;9.310;2023-09-18T05:38:07;5.7;;;2.5;;
24867;SDS011;12941;48.698;9.310;2023-09-18T05:39:07;5.7;;;2.5;;
24867;SDS011;12941;48.698;9.310;2023-09-18T05:40:12;5.7;;;2.5;;
24867;SDS011;12941;48.698;9.310;2023-09-18T05:41:17;5.7;;;2.5;;
24867;SDS011;12941;48.698;9.310;2023-09-18T05:42:17;5.7;;;2.5;;
24867;SDS011;12941;48.698;9.310;2023-09-18T05:43:22;5.6;;;2.5;;
24867;SDS011;12941;48.698;9.310;2023-09-18T05:44:27;5.6;;;2.5;;
24867;SDS011;12941;48.698;9.310;2023-09-18T05:45:27;5.6;;;2.5;;
24867;SDS011;12941;48.698;9.310;2023-09-18T05:46:27;5.6;;;2.5;;
24867;SDS011;12941;48.698;9.310;2023-09-18T05:47:32;4.7;;;2.3;;
24867;SDS011;12941;48.698;9.310;2023-09-18T05:48:32;4.7;;;2.3;;
24867;SDS011;12941;48.698;9.310;2023-09-18T05:49:32;4.7;;;2.3;;
24867;SDS011;12941;48.698;9.310;2023-09-18T05:50:37;4.7;;;2.3;;
24867;SDS011;12941;48.698;9.310;2023-09-18T05:51:37;4.7;;;2.3;;
24867;SDS011;12941;48.698;9.310;2023-09-18T05:52:42;6.2;;;2.5;;
24867;SDS011;12941;48.698;9.310;2023-09-18T05:53:42;6.2;;;2.5;;
24867;SDS011;12941;48.698;9.310;2023-09-18T05:54:43;6.2;;;2.5;;
24867;SDS011;12941;48.698;9.310;2023-09-18T05:55:47;6.2;;;2.5;;
24867;SDS011;12941;48.698;9.310;2023-09-18T05:56:58;6.2;;;2.5;;
24867;SDS011;12941;48.698;9.310;2023-09-18T05:58:03;4.4;;;2.5;;
24867;SDS011;12941;48.698;9.310;2023-09-18T05:59:07;4.4;;;2.5;;
24867;SDS011;12941;48.698;9.310;2023-09-18T06:00:07;4.4;;;2.5;;
24867;SDS011;12941;48.698;9.310;2023-09-18T06:01:12;4.4;;;2.5;;
24867;SDS011;12941;48.698;9.310;2023-09-18T06:02:17;6.8;;;2.5;;
24867;SDS011;12941;48.698;9.310;2023-09-18T06:03:17;6.7;;;2.5;;
24867;SDS011;12941;48.698;9.310;2023-09-18T06:04:22;6.7;;;2.5;;
24867;SDS011;12941;48.698;9.310;2023-09-18T06:05:23;6.7;;;2.5;;
24867;SDS011;12941;48.698;9.310;2023-09-18T06:06:23;6.7;;;2.5;;
24867;SDS011;12941;48.698;9.310;2023-09-18T06:07:23;6.1;;;2.3;;
24867;SDS011;12941;48.698;9.310;2023-09-18T06:08:28;6.1;;;2.3;;
24867;SDS011;12941;48.698;9.310;2023-09-18T06:09:33;6.1;;;2.3;;
24867;SDS011;12941;48.698;9.310;2023-09-18T06:10:33;6.1;;;2.3;;
24867;SDS011;12941;48.698;9.310;2023-09-18T06:11:33;6.1;;;2.3;;
24867;SDS011;12941;48.698;9.310;2023-09-18T06:12:33;6;;;2.3;;
24867;SDS011;12941;48.698;9.310;2023-09-18T06:13:37;6;;;2.3;;
24867;SDS011;12941;48.698;9.310;2023-09-18T06:14:37;6;;;2.3;;
24867;SDS011;12941;48.698;9.310;2023-09-18T06:15:43;6;;;2.3;;
24867;SDS011;12941;48.698;9.310;2023-09-18T06:16:43;6;;;2.3;;
24867;SDS011;12941;48.698;9.310;2023-09-18T06:17:43;5.2;;;2.8;;
24867;SDS011;12941;48.698;9.310;2023-09-18T06:18:47;5.2;;;2.8;;
24867;SDS011;12941;48.698;9.310;2023-09-18T06:19:47;5.2;;;2.8;;
24867;SDS011;12941;48.698;9.310;2023-09-18T06:20:53;5.2;;;2.8;;
24867;SDS011;12941;48.698;9.310;2023-09-18T06:21:53;5.2;;;2.8;;
24867;SDS011;12941;48.698;9.310;2023-09-18T06:22:57;8;;;3;;
24867;SDS011;12941;48.698;9.310;2023-09-18T06:23:57;8;;;3;;
24867;SDS011;12941;48.698;9.310;2023-09-18T06:24:57;8;;;3;;
24867;SDS011;12941;48.698;9.310;2023-09-18T06:26:03;8;;;3;;
24867;SDS011;12941;48.698;9.310;2023-09-18T06:27:03;8;;;3;;
24867;SDS011;12941;48.698;9.310;2023-09-18T06:28:03;8.5;;;2.9;;
24867;SDS011;12941;48.698;9.310;2023-09-18T06:29:08;8.5;;;2.9;;
24867;SDS011;12941;48.698;9.310;2023-09-18T06:30:13;8.5;;;2.9;;
24867;SDS011;12941;48.698;9.310;2023-09-18T06:31:18;8.5;;;2.9;;